sensor_id;sensor_type;location;lat;lon;timestamp;pressure;altitude;pressure_sealevel;temperature;humidity
66547;BME280;53400;50.364;14.874;2023-04-04T00:00:45;99642.72;;;0.71;74.06
66547;BME280;53400;50.364;14.874;2023-04-04T00:03:16;99635.56;;;0.63;74.58
66547;BME280;53400;50.364;14.874;2023-04-04T00:05:44;99636.59;;;0.44;75.04
66547;BME280;53400;50.364;14.874;2023-04-04T00:08:13;99636.44;;;0.19;76.69
66547;BME280;53400;50.364;14.874;2023-04-04T00:10:39;99632.72;;;0.30;75.93
66547;BME280;53400;50.364;14.874;2023-04-04T00:13:07;99631.16;;;0.19;76.25
66547;BME280;53400;50.364;14.874;2023-04-04T00:15:34;99617.59;;;0.32;75.02
66547;BME280;53400;50.364;14.874;2023-04-04T00:18:03;99629.13;;;0.31;74.39
66547;BME280;53400;50.364;14.874;2023-04-04T00:20:30;99623.38;;;0.36;74.44
66547;BME280;53400;50.364;14.874;2023-04-04T00:22:56;99610.88;;;0.38;74.05
66547;BME280;53400;50.364;14.874;2023-04-04T00:25:24;99614.09;;;0.50;73.83
66547;BME280;53400;50.364;14.874;2023-04-04T00:27:51;99607.38;;;0.63;72.54
66547;BME280;53400;50.364;14.874;2023-04-04T00:30:18;99617.09;;;0.63;72.99
66547;BME280;53400;50.364;14.874;2023-04-04T00:32:45;99608.91;;;0.40;72.29
66547;BME280;53400;50.364;14.874;2023-04-04T00:35:11;99612.72;;;0.45;71.97
66547;BME280;53400;50.364;14.874;2023-04-04T00:37:40;99610.13;;;0.54;72.25
66547;BME280;53400;50.364;14.874;2023-04-04T00:40:07;99611.69;;;0.38;72.92
66547;BME280;53400;50.364;14.874;2023-04-04T00:42:36;99608.06;;;0.39;73.41
66547;BME280;53400;50.364;14.874;2023-04-04T00:45:05;99606.59;;;0.37;72.89
66547;BME280;53400;50.364;14.874;2023-04-04T00:47:33;99601.97;;;0.39;73.14
66547;BME280;53400;50.364;14.874;2023-04-04T00:50:00;99606.81;;;0.52;73.13
66547;BME280;53400;50.364;14.874;2023-04-04T00:52:27;99597.63;;;0.56;73.02
66547;BME280;53400;50.364;14.874;2023-04-04T00:54:54;99595.81;;;0.56;73.04
66547;BME280;53400;50.364;14.874;2023-04-04T00:57:21;99596.44;;;0.50;73.59
66547;BME280;53400;50.364;14.874;2023-04-04T00:59:51;99591.31;;;0.49;73.80
66547;BME280;53400;50.364;14.874;2023-04-04T01:02:19;99589.94;;;0.62;73.69
66547;BME280;53400;50.364;14.874;2023-04-04T01:04:45;99584.72;;;0.44;72.93
66547;BME280;53400;50.364;14.874;2023-04-04T01:07:13;99587.00;;;0.39;72.38
66547;BME280;53400;50.364;14.874;2023-04-04T01:09:40;99581.00;;;0.55;71.56
66547;BME280;53400;50.364;14.874;2023-04-04T01:12:08;99589.78;;;0.38;70.35
66547;BME280;53400;50.364;14.874;2023-04-04T01:14:36;99583.63;;;0.29;71.48
66547;BME280;53400;50.364;14.874;2023-04-04T01:17:05;99584.78;;;0.27;71.65
66547;BME280;53400;50.364;14.874;2023-04-04T01:19:32;99583.53;;;0.13;71.31
66547;BME280;53400;50.364;14.874;2023-04-04T01:22:01;99579.22;;;-0.14;71.80
66547;BME280;53400;50.364;14.874;2023-04-04T01:24:32;99574.19;;;-0.08;71.62
66547;BME280;53400;50.364;14.874;2023-04-04T01:27:01;99582.38;;;-0.11;71.34
66547;BME280;53400;50.364;14.874;2023-04-04T01:29:27;99577.44;;;-0.32;71.50
66547;BME280;53400;50.364;14.874;2023-04-04T01:31:56;99573.19;;;-0.25;71.88
66547;BME280;53400;50.364;14.874;2023-04-04T01:34:28;99570.81;;;-0.18;71.19
66547;BME280;53400;50.364;14.874;2023-04-04T01:37:02;99558.19;;;-0.32;70.80
66547;BME280;53400;50.364;14.874;2023-04-04T01:39:35;99570.88;;;-0.28;71.52
66547;BME280;53400;50.364;14.874;2023-04-04T01:42:05;99569.25;;;-0.47;72.36
66547;BME280;53400;50.364;14.874;2023-04-04T01:44:32;99563.16;;;-0.65;73.22
66547;BME280;53400;50.364;14.874;2023-04-04T01:46:59;99570.88;;;-0.28;72.72
66547;BME280;53400;50.364;14.874;2023-04-04T01:49:24;99559.06;;;-0.06;71.87
66547;BME280;53400;50.364;14.874;2023-04-04T01:51:51;99565.88;;;-0.39;73.36
66547;BME280;53400;50.364;14.874;2023-04-04T01:54:19;99565.75;;;-0.11;72.99
66547;BME280;53400;50.364;14.874;2023-04-04T01:56:45;99569.63;;;0.03;72.72
66547;BME280;53400;50.364;14.874;2023-04-04T01:59:13;99560.81;;;0.12;72.62
66547;BME280;53400;50.364;14.874;2023-04-04T02:01:39;99552.59;;;0.15;72.90
66547;BME280;53400;50.364;14.874;2023-04-04T02:04:05;99556.53;;;0.11;72.04
66547;BME280;53400;50.364;14.874;2023-04-04T02:06:34;99559.47;;;0.08;71.90
66547;BME280;53400;50.364;14.874;2023-04-04T02:09:01;99559.50;;;-0.10;72.09
66547;BME280;53400;50.364;14.874;2023-04-04T02:11:31;99553.66;;;-0.22;72.98
66547;BME280;53400;50.364;14.874;2023-04-04T02:13:58;99555.03;;;-0.36;72.81
66547;BME280;53400;50.364;14.874;2023-04-04T02:16:28;99553.06;;;-0.34;72.21
66547;BME280;53400;50.364;14.874;2023-04-04T02:18:54;99561.56;;;-0.40;71.21
66547;BME280;53400;50.364;14.874;2023-04-04T02:21:21;99557.88;;;-0.47;71.26
66547;BME280;53400;50.364;14.874;2023-04-04T02:23:48;99559.63;;;-0.56;69.92
66547;BME280;53400;50.364;14.874;2023-04-04T02:26:15;99562.25;;;-0.56;70.17
66547;BME280;53400;50.364;14.874;2023-04-04T02:28:41;99566.69;;;-0.56;69.22
66547;BME280;53400;50.364;14.874;2023-04-04T02:31:08;99562.84;;;-0.62;70.26
66547;BME280;53400;50.364;14.874;2023-04-04T02:33:39;99555.63;;;-0.60;70.58
66547;BME280;53400;50.364;14.874;2023-04-04T02:36:07;99559.41;;;-0.44;70.33
66547;BME280;53400;50.364;14.874;2023-04-04T02:38:33;99560.66;;;-0.31;70.08
66547;BME280;53400;50.364;14.874;2023-04-04T02:41:00;99559.16;;;-0.33;71.21
66547;BME280;53400;50.364;14.874;2023-04-04T02:43:26;99553.69;;;-0.58;72.70
66547;BME280;53400;50.364;14.874;2023-04-04T02:45:53;99555.47;;;-0.76;73.31
66547;BME280;53400;50.364;14.874;2023-04-04T02:48:19;99554.81;;;-0.78;74.91
66547;BME280;53400;50.364;14.874;2023-04-04T02:50:47;99549.13;;;-1.01;75.83
66547;BME280;53400;50.364;14.874;2023-04-04T02:53:13;99559.00;;;-1.03;76.65
66547;BME280;53400;50.364;14.874;2023-04-04T02:55:41;99545.31;;;-0.89;76.51
66547;BME280;53400;50.364;14.874;2023-04-04T02:58:08;99541.81;;;-0.62;75.37
66547;BME280;53400;50.364;14.874;2023-04-04T03:00:35;99553.09;;;-0.52;74.85
66547;BME280;53400;50.364;14.874;2023-04-04T03:03:02;99550.19;;;-0.76;75.67
66547;BME280;53400;50.364;14.874;2023-04-04T03:05:31;99551.84;;;-0.93;75.80
66547;BME280;53400;50.364;14.874;2023-04-04T03:07:59;99551.88;;;-0.75;75.63
66547;BME280;53400;50.364;14.874;2023-04-04T03:10:27;99549.56;;;-0.78;75.18
66547;BME280;53400;50.364;14.874;2023-04-04T03:12:58;99554.28;;;-0.82;75.81
66547;BME280;53400;50.364;14.874;2023-04-04T03:15:25;99561.56;;;-0.76;76.49
66547;BME280;53400;50.364;14.874;2023-04-04T03:17:52;99557.19;;;-0.67;75.46
66547;BME280;53400;50.364;14.874;2023-04-04T03:20:21;99554.03;;;-0.88;75.45
66547;BME280;53400;50.364;14.874;2023-04-04T03:22:48;99558.09;;;-0.76;75.56
66547;BME280;53400;50.364;14.874;2023-04-04T03:25:18;99548.41;;;-0.94;76.37
66547;BME280;53400;50.364;14.874;2023-04-04T03:27:46;99555.22;;;-1.01;77.70
66547;BME280;53400;50.364;14.874;2023-04-04T03:30:13;99558.63;;;-0.90;77.93
66547;BME280;53400;50.364;14.874;2023-04-04T03:32:39;99563.59;;;-0.87;77.09
66547;BME280;53400;50.364;14.874;2023-04-04T03:35:07;99554.41;;;-0.83;77.28
66547;BME280;53400;50.364;14.874;2023-04-04T03:37:35;99551.88;;;-0.75;76.19
66547;BME280;53400;50.364;14.874;2023-04-04T03:40:02;99556.06;;;-0.64;75.37
66547;BME280;53400;50.364;14.874;2023-04-04T03:42:33;99550.28;;;-0.68;75.97
66547;BME280;53400;50.364;14.874;2023-04-04T03:45:01;99541.88;;;-0.54;75.35
66547;BME280;53400;50.364;14.874;2023-04-04T03:47:29;99542.41;;;-0.50;75.15
66547;BME280;53400;50.364;14.874;2023-04-04T03:50:00;99546.53;;;-0.65;75.68
66547;BME280;53400;50.364;14.874;2023-04-04T03:52:27;99547.53;;;-0.49;75.45
66547;BME280;53400;50.364;14.874;2023-04-04T03:54:54;99538.34;;;-0.44;74.77
66547;BME280;53400;50.364;14.874;2023-04-04T03:57:21;99541.09;;;-0.46;73.99
66547;BME280;53400;50.364;14.874;2023-04-04T03:59:49;99547.56;;;-0.40;73.60
66547;BME280;53400;50.364;14.874;2023-04-04T04:02:15;99542.00;;;-0.37;72.98
66547;BME280;53400;50.364;14.874;2023-04-04T04:04:43;99547.38;;;-0.65;73.06
66547;BME280;53400;50.364;14.874;2023-04-04T04:07:10;99551.66;;;-0.64;71.85
66547;BME280;53400;50.364;14.874;2023-04-04T04:09:37;99552.09;;;-0.51;72.27
66547;BME280;53400;50.364;14.874;2023-04-04T04:12:05;99554.72;;;-0.33;71.93
66547;BME280;53400;50.364;14.874;2023-04-04T04:14:32;99545.16;;;-0.34;71.25
66547;BME280;53400;50.364;14.874;2023-04-04T04:17:01;99546.31;;;-0.36;71.06
66547;BME280;53400;50.364;14.874;2023-04-04T04:19:28;99548.41;;;-0.40;70.56
66547;BME280;53400;50.364;14.874;2023-04-04T04:21:55;99558.41;;;-0.43;71.49
66547;BME280;53400;50.364;14.874;2023-04-04T04:24:22;99551.72;;;-0.38;79.26
66547;BME280;53400;50.364;14.874;2023-04-04T04:26:50;99545.25;;;-0.43;71.92
66547;BME280;53400;50.364;14.874;2023-04-04T04:29:18;99558.09;;;-0.58;73.44
66547;BME280;53400;50.364;14.874;2023-04-04T04:31:45;99557.50;;;-0.70;74.19
66547;BME280;53400;50.364;14.874;2023-04-04T04:34:13;99563.66;;;-0.79;74.88
66547;BME280;53400;50.364;14.874;2023-04-04T04:36:40;99561.41;;;-0.74;75.23
66547;BME280;53400;50.364;14.874;2023-04-04T04:39:07;99559.31;;;-0.71;74.75
66547;BME280;53400;50.364;14.874;2023-04-04T04:41:35;99558.09;;;-0.76;75.37
66547;BME280;53400;50.364;14.874;2023-04-04T04:44:02;99562.94;;;-0.72;75.41
66547;BME280;53400;50.364;14.874;2023-04-04T04:46:28;99564.41;;;-0.87;75.78
66547;BME280;53400;50.364;14.874;2023-04-04T04:48:55;99569.69;;;-0.69;75.72
66547;BME280;53400;50.364;14.874;2023-04-04T04:51:23;99568.09;;;-0.62;75.37
66547;BME280;53400;50.364;14.874;2023-04-04T04:53:50;99566.31;;;-0.61;75.05
66547;BME280;53400;50.364;14.874;2023-04-04T04:56:18;99558.09;;;-0.58;74.56
66547;BME280;53400;50.364;14.874;2023-04-04T04:58:45;99567.06;;;-0.51;72.73
66547;BME280;53400;50.364;14.874;2023-04-04T05:01:12;99562.13;;;-0.54;72.54
66547;BME280;53400;50.364;14.874;2023-04-04T05:03:40;99564.13;;;-0.48;72.60
66547;BME280;53400;50.364;14.874;2023-04-04T05:06:08;99567.91;;;-0.51;72.55
66547;BME280;53400;50.364;14.874;2023-04-04T05:08:37;99570.06;;;-0.28;72.84
66547;BME280;53400;50.364;14.874;2023-04-04T05:11:03;99578.94;;;-0.29;71.40
66547;BME280;53400;50.364;14.874;2023-04-04T05:13:30;99577.50;;;-0.41;70.80
66547;BME280;53400;50.364;14.874;2023-04-04T05:15:56;99576.84;;;-0.43;70.04
66547;BME280;53400;50.364;14.874;2023-04-04T05:18:25;99579.63;;;-0.45;70.12
66547;BME280;53400;50.364;14.874;2023-04-04T05:20:53;99580.44;;;-0.44;69.90
66547;BME280;53400;50.364;14.874;2023-04-04T05:23:20;99576.44;;;-0.31;69.49
66547;BME280;53400;50.364;14.874;2023-04-04T05:25:49;99573.97;;;-0.32;68.70
66547;BME280;53400;50.364;14.874;2023-04-04T05:28:17;99574.97;;;-0.33;68.67
66547;BME280;53400;50.364;14.874;2023-04-04T05:30:43;99576.69;;;-0.42;68.83
66547;BME280;53400;50.364;14.874;2023-04-04T05:33:11;99576.31;;;-0.47;68.22
66547;BME280;53400;50.364;14.874;2023-04-04T05:35:38;99576.44;;;-0.31;67.97
66547;BME280;53400;50.364;14.874;2023-04-04T05:38:06;99577.31;;;-0.04;66.75
66547;BME280;53400;50.364;14.874;2023-04-04T05:40:37;99578.63;;;0.18;65.91
66547;BME280;53400;50.364;14.874;2023-04-04T05:43:05;99573.72;;;0.23;65.52
66547;BME280;53400;50.364;14.874;2023-04-04T05:45:35;99575.47;;;0.14;65.35
66547;BME280;53400;50.364;14.874;2023-04-04T05:48:02;99567.69;;;0.31;63.33
66547;BME280;53400;50.364;14.874;2023-04-04T05:50:29;99566.19;;;0.28;64.69
66547;BME280;53400;50.364;14.874;2023-04-04T05:52:56;99552.41;;;0.42;63.05
66547;BME280;53400;50.364;14.874;2023-04-04T05:55:24;99562.81;;;0.44;62.14
66547;BME280;53400;50.364;14.874;2023-04-04T05:57:52;99555.78;;;0.53;61.50
66547;BME280;53400;50.364;14.874;2023-04-04T06:00:21;99547.38;;;0.57;61.21
66547;BME280;53400;50.364;14.874;2023-04-04T06:02:52;99554.34;;;0.66;62.68
66547;BME280;53400;50.364;14.874;2023-04-04T06:05:23;99555.28;;;1.00;60.91
66547;BME280;53400;50.364;14.874;2023-04-04T06:07:51;99554.19;;;0.68;59.05
66547;BME280;53400;50.364;14.874;2023-04-04T06:10:17;99552.00;;;1.06;61.22
66547;BME280;53400;50.364;14.874;2023-04-04T06:12:47;99559.47;;;1.19;58.60
66547;BME280;53400;50.364;14.874;2023-04-04T06:15:14;99558.13;;;1.14;56.93
66547;BME280;53400;50.364;14.874;2023-04-04T06:17:42;99559.91;;;0.98;57.92
66547;BME280;53400;50.364;14.874;2023-04-04T06:20:11;99566.44;;;1.36;58.21
66547;BME280;53400;50.364;14.874;2023-04-04T06:22:38;99548.13;;;1.51;57.95
66547;BME280;53400;50.364;14.874;2023-04-04T06:25:08;99560.69;;;1.73;55.78
66547;BME280;53400;50.364;14.874;2023-04-04T06:27:36;99561.88;;;1.71;54.72
66547;BME280;53400;50.364;14.874;2023-04-04T06:30:05;99561.53;;;1.49;55.46
66547;BME280;53400;50.364;14.874;2023-04-04T06:32:32;99559.34;;;1.28;54.79
66547;BME280;53400;50.364;14.874;2023-04-04T06:35:01;99555.22;;;1.26;54.36
66547;BME280;53400;50.364;14.874;2023-04-04T06:37:30;99559.19;;;1.79;55.28
66547;BME280;53400;50.364;14.874;2023-04-04T06:39:56;99549.31;;;1.56;54.31
66547;BME280;53400;50.364;14.874;2023-04-04T06:42:24;99560.19;;;1.70;54.09
66547;BME280;53400;50.364;14.874;2023-04-04T06:44:50;99567.47;;;1.92;55.36
66547;BME280;53400;50.364;14.874;2023-04-04T06:47:16;99561.53;;;1.74;53.58
66547;BME280;53400;50.364;14.874;2023-04-04T06:49:44;99559.22;;;1.71;52.88
66547;BME280;53400;50.364;14.874;2023-04-04T06:52:13;99559.53;;;2.00;53.85
66547;BME280;53400;50.364;14.874;2023-04-04T06:54:39;99549.56;;;2.35;52.83
66547;BME280;53400;50.364;14.874;2023-04-04T06:57:05;99552.34;;;2.50;51.51
66547;BME280;53400;50.364;14.874;2023-04-04T06:59:33;99552.00;;;2.45;51.91
66547;BME280;53400;50.364;14.874;2023-04-04T07:01:59;99554.97;;;2.50;49.94
66547;BME280;53400;50.364;14.874;2023-04-04T07:04:25;99557.28;;;2.53;51.25
66547;BME280;53400;50.364;14.874;2023-04-04T07:06:53;99564.03;;;2.56;50.34
66547;BME280;53400;50.364;14.874;2023-04-04T07:09:25;99553.28;;;3.05;51.76
66547;BME280;53400;50.364;14.874;2023-04-04T07:11:53;99553.09;;;3.06;49.77
66547;BME280;53400;50.364;14.874;2023-04-04T07:14:20;99550.53;;;3.21;50.25
66547;BME280;53400;50.364;14.874;2023-04-04T07:16:50;99549.16;;;3.02;49.25
66547;BME280;53400;50.364;14.874;2023-04-04T07:19:18;99544.56;;;2.96;50.79
66547;BME280;53400;50.364;14.874;2023-04-04T07:21:45;99550.19;;;2.93;52.62
66547;BME280;53400;50.364;14.874;2023-04-04T07:24:11;99546.53;;;2.94;52.97
66547;BME280;53400;50.364;14.874;2023-04-04T07:26:39;99564.22;;;3.02;52.88
66547;BME280;53400;50.364;14.874;2023-04-04T07:29:06;99559.72;;;2.71;53.33
66547;BME280;53400;50.364;14.874;2023-04-04T07:31:33;99552.34;;;2.50;54.94
66547;BME280;53400;50.364;14.874;2023-04-04T07:33:59;99552.50;;;2.40;55.45
66547;BME280;53400;50.364;14.874;2023-04-04T07:36:28;99561.78;;;2.36;55.74
66547;BME280;53400;50.364;14.874;2023-04-04T07:38:55;99561.50;;;2.06;56.09
66547;BME280;53400;50.364;14.874;2023-04-04T07:41:22;99556.22;;;2.15;55.24
66547;BME280;53400;50.364;14.874;2023-04-04T07:43:50;99553.25;;;2.01;55.64
66547;BME280;53400;50.364;14.874;2023-04-04T07:46:17;99566.63;;;1.92;54.71
66547;BME280;53400;50.364;14.874;2023-04-04T07:48:47;99558.53;;;2.01;56.81
66547;BME280;53400;50.364;14.874;2023-04-04T07:51:17;99557.06;;;1.91;54.26
66547;BME280;53400;50.364;14.874;2023-04-04T07:53:45;99554.94;;;1.62;54.65
66547;BME280;53400;50.364;14.874;2023-04-04T07:56:12;99550.63;;;1.77;54.14
66547;BME280;53400;50.364;14.874;2023-04-04T07:58:38;99554.91;;;1.78;56.14
66547;BME280;53400;50.364;14.874;2023-04-04T08:01:06;99548.16;;;1.83;55.25
66547;BME280;53400;50.364;14.874;2023-04-04T08:03:32;99549.66;;;1.86;53.42
66547;BME280;53400;50.364;14.874;2023-04-04T08:05:59;99560.03;;;1.88;54.80
66547;BME280;53400;50.364;14.874;2023-04-04T08:08:28;99551.13;;;1.80;53.21
66547;BME280;53400;50.364;14.874;2023-04-04T08:10:55;99553.59;;;1.90;53.14
66547;BME280;53400;50.364;14.874;2023-04-04T08:13:23;99554.41;;;1.99;54.29
66547;BME280;53400;50.364;14.874;2023-04-04T08:15:50;99549.94;;;1.99;54.34
66547;BME280;53400;50.364;14.874;2023-04-04T08:18:18;99559.53;;;2.00;55.74
66547;BME280;53400;50.364;14.874;2023-04-04T08:20:46;99547.78;;;2.19;54.91
66547;BME280;53400;50.364;14.874;2023-04-04T08:23:13;99557.34;;;2.20;54.74
66547;BME280;53400;50.364;14.874;2023-04-04T08:25:40;99544.47;;;2.25;54.29
66547;BME280;53400;50.364;14.874;2023-04-04T08:28:10;99545.47;;;2.16;56.40
66547;BME280;53400;50.364;14.874;2023-04-04T08:30:37;99539.16;;;2.34;55.54
66547;BME280;53400;50.364;14.874;2023-04-04T08:33:04;99540.50;;;2.77;54.75
66547;BME280;53400;50.364;14.874;2023-04-04T08:35:36;99536.59;;;2.65;51.75
66547;BME280;53400;50.364;14.874;2023-04-04T08:38:02;99542.41;;;2.52;53.49
66547;BME280;53400;50.364;14.874;2023-04-04T08:40:31;99537.88;;;2.77;53.63
66547;BME280;53400;50.364;14.874;2023-04-04T08:42:58;99529.63;;;3.03;52.55
66547;BME280;53400;50.364;14.874;2023-04-04T08:45:27;99534.34;;;2.85;50.96
66547;BME280;53400;50.364;14.874;2023-04-04T08:47:57;99530.78;;;2.69;50.95
66547;BME280;53400;50.364;14.874;2023-04-04T08:50:29;99523.94;;;2.83;51.45
66547;BME280;53400;50.364;14.874;2023-04-04T08:52:57;99521.16;;;2.29;50.41
66547;BME280;53400;50.364;14.874;2023-04-04T08:55:27;99521.63;;;2.41;50.56
66547;BME280;53400;50.364;14.874;2023-04-04T08:57:54;99517.16;;;2.41;50.20
66547;BME280;53400;50.364;14.874;2023-04-04T09:00:23;99523.59;;;2.39;49.70
66547;BME280;53400;50.364;14.874;2023-04-04T09:02:55;99523.72;;;2.53;49.03
66547;BME280;53400;50.364;14.874;2023-04-04T09:05:27;99521.22;;;2.60;48.09
66547;BME280;53400;50.364;14.874;2023-04-04T09:07:58;99517.38;;;2.71;47.90
66547;BME280;53400;50.364;14.874;2023-04-04T09:10:26;99521.47;;;2.73;47.53
66547;BME280;53400;50.364;14.874;2023-04-04T09:12:55;99518.47;;;2.85;47.80
66547;BME280;53400;50.364;14.874;2023-04-04T09:15:24;99515.72;;;2.70;47.36
66547;BME280;53400;50.364;14.874;2023-04-04T09:17:51;99520.81;;;3.11;47.04
66547;BME280;53400;50.364;14.874;2023-04-04T09:20:39;99522.09;;;3.15;45.45
66547;BME280;53400;50.364;14.874;2023-04-04T09:23:08;99518.75;;;3.21;44.57
66547;BME280;53400;50.364;14.874;2023-04-04T09:25:44;99507.22;;;3.37;44.32
66547;BME280;53400;50.364;14.874;2023-04-04T09:28:28;99511.69;;;3.36;44.26
66547;BME280;53400;50.364;14.874;2023-04-04T09:31:12;99510.34;;;3.63;45.82
66547;BME280;53400;50.364;14.874;2023-04-04T09:33:39;99509.78;;;3.68;47.36
66547;BME280;53400;50.364;14.874;2023-04-04T09:36:07;99510.88;;;3.36;46.53
66547;BME280;53400;50.364;14.874;2023-04-04T09:38:38;99518.38;;;3.01;44.98
66547;BME280;53400;50.364;14.874;2023-04-04T09:41:05;99514.63;;;3.18;44.91
66547;BME280;53400;50.364;14.874;2023-04-04T09:43:33;99519.34;;;3.08;45.60
66547;BME280;53400;50.364;14.874;2023-04-04T09:46:00;99508.47;;;3.26;46.60
66547;BME280;53400;50.364;14.874;2023-04-04T09:48:30;99511.09;;;3.03;44.10
66547;BME280;53400;50.364;14.874;2023-04-04T09:51:03;99513.22;;;3.31;44.53
66547;BME280;53400;50.364;14.874;2023-04-04T09:53:33;99506.00;;;3.48;42.65
66547;BME280;53400;50.364;14.874;2023-04-04T09:56:03;99505.53;;;3.82;44.86
66547;BME280;53400;50.364;14.874;2023-04-04T09:58:33;99498.34;;;3.90;42.06
66547;BME280;53400;50.364;14.874;2023-04-04T10:01:07;99509.06;;;3.59;43.50
66547;BME280;53400;50.364;14.874;2023-04-04T10:03:36;99493.41;;;3.87;42.99
66547;BME280;53400;50.364;14.874;2023-04-04T10:06:07;99502.63;;;3.91;44.09
66547;BME280;53400;50.364;14.874;2023-04-04T10:08:40;99502.03;;;4.34;42.28
66547;BME280;53400;50.364;14.874;2023-04-04T10:11:10;99502.59;;;4.14;43.57
66547;BME280;53400;50.364;14.874;2023-04-04T10:13:37;99510.41;;;3.55;44.34
66547;BME280;53400;50.364;14.874;2023-04-04T10:16:10;99498.75;;;4.17;44.15
66547;BME280;53400;50.364;14.874;2023-04-04T10:18:37;99492.69;;;4.53;43.49
66547;BME280;53400;50.364;14.874;2023-04-04T10:21:06;99483.66;;;4.83;42.74
66547;BME280;53400;50.364;14.874;2023-04-04T10:23:34;99499.81;;;3.93;43.88
66547;BME280;53400;50.364;14.874;2023-04-04T10:26:02;99502.59;;;3.77;44.11
66547;BME280;53400;50.364;14.874;2023-04-04T10:28:30;99510.03;;;3.81;44.11
66547;BME280;53400;50.364;14.874;2023-04-04T10:31:04;99501.75;;;3.99;42.61
66547;BME280;53400;50.364;14.874;2023-04-04T10:33:39;99491.44;;;3.66;42.50
66547;BME280;53400;50.364;14.874;2023-04-04T10:36:08;99485.38;;;4.40;42.59
66547;BME280;53400;50.364;14.874;2023-04-04T10:38:41;99482.41;;;4.79;43.85
66547;BME280;53400;50.364;14.874;2023-04-04T10:41:10;99487.78;;;4.86;43.29
66547;BME280;53400;50.364;14.874;2023-04-04T10:43:40;99477.78;;;5.46;41.75
66547;BME280;53400;50.364;14.874;2023-04-04T10:46:15;99479.06;;;5.78;42.76
66547;BME280;53400;50.364;14.874;2023-04-04T10:48:42;99482.66;;;5.64;40.99
66547;BME280;53400;50.364;14.874;2023-04-04T10:51:10;99478.34;;;5.20;40.50
66547;BME280;53400;50.364;14.874;2023-04-04T10:53:38;99477.97;;;4.50;43.96
66547;BME280;53400;50.364;14.874;2023-04-04T10:56:07;99482.09;;;4.08;42.77
66547;BME280;53400;50.364;14.874;2023-04-04T10:58:40;99490.59;;;4.04;41.95
66547;BME280;53400;50.364;14.874;2023-04-04T11:01:08;99469.19;;;4.35;43.70
66547;BME280;53400;50.364;14.874;2023-04-04T11:07:11;99470.69;;;4.89;41.60
66547;BME280;53400;50.364;14.874;2023-04-04T11:09:51;99461.53;;;4.10;42.36
66547;BME280;53400;50.364;14.874;2023-04-04T11:12:27;99468.09;;;4.44;42.89
66547;BME280;53400;50.364;14.874;2023-04-04T11:15:15;99473.41;;;4.44;42.71
66547;BME280;53400;50.364;14.874;2023-04-04T11:17:57;99461.34;;;4.42;41.20
66547;BME280;53400;50.364;14.874;2023-04-04T11:20:30;99462.34;;;4.26;43.03
66547;BME280;53400;50.364;14.874;2023-04-04T11:23:04;99455.66;;;4.59;42.76
66547;BME280;53400;50.364;14.874;2023-04-04T11:25:33;99463.72;;;4.88;42.10
66547;BME280;53400;50.364;14.874;2023-04-04T11:28:04;99447.00;;;4.36;42.33
66547;BME280;53400;50.364;14.874;2023-04-04T11:30:38;99460.78;;;4.17;41.71
66547;BME280;53400;50.364;14.874;2023-04-04T11:33:11;99449.38;;;4.16;42.46
66547;BME280;53400;50.364;14.874;2023-04-04T11:35:44;99454.00;;;4.58;42.62
66547;BME280;53400;50.364;14.874;2023-04-04T11:38:14;99463.72;;;4.22;41.74
66547;BME280;53400;50.364;14.874;2023-04-04T11:40:51;99444.16;;;4.23;40.98
66547;BME280;53400;50.364;14.874;2023-04-04T11:43:19;99434.09;;;4.33;42.55
66547;BME280;53400;50.364;14.874;2023-04-04T11:45:47;99432.31;;;4.55;42.65
66547;BME280;53400;50.364;14.874;2023-04-04T11:48:15;99438.59;;;4.18;44.87
66547;BME280;53400;50.364;14.874;2023-04-04T11:50:45;99443.31;;;4.22;43.49
66547;BME280;53400;50.364;14.874;2023-04-04T11:53:16;99450.47;;;4.22;43.20
66547;BME280;53400;50.364;14.874;2023-04-04T11:55:47;99437.00;;;4.38;43.07
66547;BME280;53400;50.364;14.874;2023-04-04T11:58:16;99449.84;;;4.71;42.52
66547;BME280;53400;50.364;14.874;2023-04-04T12:00:48;99432.50;;;4.90;43.12
66547;BME280;53400;50.364;14.874;2023-04-04T12:03:16;99426.94;;;4.48;42.67
66547;BME280;53400;50.364;14.874;2023-04-04T12:05:43;99440.31;;;4.10;43.65
66547;BME280;53400;50.364;14.874;2023-04-04T12:08:12;99445.06;;;4.00;42.75
66547;BME280;53400;50.364;14.874;2023-04-04T12:10:41;99435.84;;;4.11;44.63
66547;BME280;53400;50.364;14.874;2023-04-04T12:13:10;99438.25;;;4.72;43.85
66547;BME280;53400;50.364;14.874;2023-04-04T12:15:37;99447.06;;;4.57;44.29
66547;BME280;53400;50.364;14.874;2023-04-04T12:18:09;99458.94;;;4.32;44.11
66547;BME280;53400;50.364;14.874;2023-04-04T12:20:37;99448.47;;;4.09;45.30
66547;BME280;53400;50.364;14.874;2023-04-04T12:23:05;99444.63;;;4.26;43.81
66547;BME280;53400;50.364;14.874;2023-04-04T12:25:34;99431.06;;;4.36;42.91
66547;BME280;53400;50.364;14.874;2023-04-04T12:28:05;99427.41;;;4.22;43.33
66547;BME280;53400;50.364;14.874;2023-04-04T12:30:32;99431.53;;;4.25;43.05
66547;BME280;53400;50.364;14.874;2023-04-04T12:33:01;99429.75;;;4.62;44.79
66547;BME280;53400;50.364;14.874;2023-04-04T12:35:30;99432.78;;;4.58;42.00
66547;BME280;53400;50.364;14.874;2023-04-04T12:38:03;99425.09;;;4.85;43.65
66547;BME280;53400;50.364;14.874;2023-04-04T12:40:34;99438.06;;;4.58;43.85
66547;BME280;53400;50.364;14.874;2023-04-04T12:43:06;99425.50;;;4.31;43.31
66547;BME280;53400;50.364;14.874;2023-04-04T12:45:42;99432.25;;;3.89;43.05
66547;BME280;53400;50.364;14.874;2023-04-04T12:48:11;99428.44;;;4.21;42.84
66547;BME280;53400;50.364;14.874;2023-04-04T12:50:50;99420.72;;;4.41;41.99
66547;BME280;53400;50.364;14.874;2023-04-04T12:53:22;99427.91;;;4.62;42.23
66547;BME280;53400;50.364;14.874;2023-04-04T12:55:50;99417.47;;;4.24;44.11
66547;BME280;53400;50.364;14.874;2023-04-04T12:58:20;99423.38;;;4.41;44.17
66547;BME280;53400;50.364;14.874;2023-04-04T13:00:49;99417.53;;;3.86;44.04
66547;BME280;53400;50.364;14.874;2023-04-04T13:03:22;99429.13;;;3.71;45.59
66547;BME280;53400;50.364;14.874;2023-04-04T13:05:51;99434.72;;;3.76;46.21
66547;BME280;53400;50.364;14.874;2023-04-04T13:08:19;99428.44;;;3.39;47.18